Time;durP1;ratioP1;P1;durP2;ratioP2;P2;SDS_P1;SDS_P2;PMS_P1;PMS_P2;Temp;Humidity;BMP_temperature;BMP_pressure;BME280_temperature;BME280_humidity;BME280_pressure;Samples;Min_cycle;Max_cycle;Signal;HPM_P1;HPM_P2
2022/04/26 04:21:31;;;;;;;14.97;13.37;;;10.20;99.90;;;;;;4938483;28;21107;-91
2022/04/26 04:23:57;;;;;;;15.70;14.07;;;10.20;99.90;;;;;;4913963;28;20983;-92
2022/04/26 04:26:24;;;;;;;15.50;14.00;;;10.00;99.90;;;;;;4917980;28;20438;-94
2022/04/26 04:28:50;;;;;;;15.70;14.10;;;9.60;99.90;;;;;;4919358;29;20439;-92
2022/04/26 04:31:18;;;;;;;17.33;15.47;;;9.70;99.90;;;;;;4918161;29;20931;-94
2022/04/26 04:33:57;;;;;;;17.00;15.20;;;9.70;99.90;;;;;;4934249;28;20214;-94
2022/04/26 04:36:22;;;;;;;16.70;15.00;;;9.70;99.90;;;;;;4918537;29;20435;-93
2022/04/26 04:39:01;;;;;;;18.93;16.90;;;9.60;99.90;;;;;;4921594;29;20493;-93
2022/04/26 04:41:28;;;;;;;18.80;16.80;;;9.60;99.90;;;;;;4905562;28;20209;-93
2022/04/26 04:44:17;;;;;;;19.00;17.00;;;9.70;99.90;;;;;;4920213;29;20525;-92
2022/04/26 04:46:46;;;;;;;19.70;16.97;;;9.70;99.90;;;;;;4923093;29;20521;-93
2022/04/26 04:49:12;;;;;;;16.97;15.13;;;9.60;99.90;;;;;;4916853;28;20447;-92
2022/04/26 04:51:39;;;;;;;19.90;15.60;;;9.60;99.90;;;;;;4918635;29;20850;-94
2022/04/26 04:54:09;;;;;;;16.40;14.70;;;9.30;99.90;;;;;;4917773;28;21508;-95
2022/04/26 04:56:40;;;;;;;15.50;13.90;;;9.50;99.90;;;;;;4928571;29;20493;-94
2022/04/26 04:59:14;;;;;;;16.23;14.53;;;9.60;99.90;;;;;;4935218;28;20561;-94
2022/04/26 05:01:39;;;;;;;15.10;13.60;;;9.70;99.90;;;;;;4901795;28;20450;-92
2022/04/26 05:04:10;;;;;;;14.27;12.87;;;9.60;99.90;;;;;;4926455;28;20453;-91
2022/04/26 05:06:46;;;;;;;15.83;14.30;;;9.70;99.90;;;;;;4924417;29;20317;-90
2022/04/26 05:09:17;;;;;;;14.43;13.03;;;9.70;99.90;;;;;;4927934;29;20450;-92
2022/04/26 05:11:45;;;;;;;14.57;13.07;;;9.60;99.90;;;;;;4945394;28;20837;-91
2022/04/26 05:14:11;;;;;;;14.27;12.87;;;9.90;99.90;;;;;;4926451;29;20880;-92
2022/04/26 05:16:37;;;;;;;14.97;13.37;;;9.70;99.90;;;;;;4929654;29;20424;-91
2022/04/26 05:19:07;;;;;;;14.17;12.57;;;10.10;99.90;;;;;;4947140;28;20275;-92
2022/04/26 05:21:33;;;;;;;13.23;11.93;;;9.80;99.90;;;;;;4930962;29;20179;-92
2022/04/26 05:27:14;;;;;;;12.60;11.37;;;9.90;99.90;;;;;;4946481;28;20256;-92
2022/04/26 05:30:16;;;;;;;12.50;11.30;;;10.00;99.90;;;;;;4941532;28;20936;-92
2022/04/26 05:32:47;;;;;;;14.13;12.13;;;9.90;99.90;;;;;;4924890;29;20450;-92
2022/04/26 05:35:28;;;;;;;14.03;12.63;;;9.70;99.90;;;;;;4928162;28;20445;-93
2022/04/26 05:37:57;;;;;;;14.30;11.63;;;10.40;99.90;;;;;;4929939;28;20493;-92
2022/04/26 05:40:26;;;;;;;15.07;12.60;;;10.00;99.90;;;;;;4927950;29;20482;-93
2022/04/26 05:42:51;;;;;;;13.87;12.57;;;10.20;99.90;;;;;;4926619;28;20444;-91
2022/04/26 05:45:17;;;;;;;13.87;12.57;;;10.00;99.90;;;;;;4930035;29;20449;-93
2022/04/26 05:47:56;;;;;;;12.87;11.67;;;9.90;99.90;;;;;;4924478;28;20567;-93
2022/04/26 05:50:34;;;;;;;13.33;11.70;;;10.00;99.90;;;;;;4945752;28;20243;-93
2022/04/26 05:52:59;;;;;;;14.67;13.20;;;10.00;99.90;;;;;;4941913;28;20709;-91
2022/04/26 05:55:25;;;;;;;12.50;11.20;;;9.90;99.90;;;;;;4926243;29;20193;-90
2022/04/26 05:57:53;;;;;;;13.80;12.40;;;10.10;99.90;;;;;;4923026;28;20266;-91
2022/04/26 06:00:19;;;;;;;15.13;12.87;;;10.30;99.90;;;;;;4947116;28;20201;-90
2022/04/26 06:02:48;;;;;;;13.67;12.27;;;10.00;99.90;;;;;;4941307;28;20442;-91
2022/04/26 06:05:14;;;;;;;15.30;13.80;;;10.00;99.90;;;;;;4946357;28;20254;-92
2022/04/26 06:07:40;;;;;;;14.33;12.97;;;9.80;99.90;;;;;;4944995;28;20529;-91
2022/04/26 06:10:10;;;;;;;14.90;13.30;;;10.10;99.90;;;;;;4919544;28;20627;-94
2022/04/26 06:12:52;;;;;;;14.37;12.97;;;10.10;99.90;;;;;;4929486;29;20207;-95
2022/04/26 06:15:28;;;;;;;14.47;13.03;;;10.50;99.90;;;;;;4927122;28;20542;-90
2022/04/26 06:18:07;;;;;;;14.83;13.33;;;10.00;99.90;;;;;;4926367;28;20501;-90
2022/04/26 06:20:33;;;;;;;14.77;12.70;;;10.00;99.90;;;;;;4936121;28;20450;-92
2022/04/26 06:23:18;;;;;;;14.10;12.70;;;10.50;99.90;;;;;;4915109;28;20443;-91
2022/04/26 06:25:48;;;;;;;14.67;13.17;;;10.50;99.90;;;;;;4927124;28;20502;-90
2022/04/26 06:28:15;;;;;;;15.30;13.80;;;10.00;99.90;;;;;;4950190;28;20451;-91
2022/04/26 06:30:42;;;;;;;14.80;13.40;;;10.00;99.90;;;;;;4931753;28;20434;-94
2022/04/26 06:33:10;;;;;;;15.73;14.07;;;9.90;99.90;;;;;;4918668;28;20454;-89
2022/04/26 06:35:46;;;;;;;14.40;12.90;;;9.90;99.90;;;;;;4940222;28;20439;-87
2022/04/26 06:38:14;;;;;;;15.87;14.17;;;10.10;99.90;;;;;;4923364;29;20485;-89
2022/04/26 06:40:43;;;;;;;14.03;12.53;;;10.10;99.90;;;;;;4931192;28;20453;-89
2022/04/26 06:43:11;;;;;;;14.50;13.00;;;10.10;99.90;;;;;;4924261;28;20964;-90
2022/04/26 06:45:37;;;;;;;14.30;12.90;;;10.20;99.90;;;;;;4921040;28;20196;-89
2022/04/26 06:48:10;;;;;;;15.53;13.90;;;10.10;99.90;;;;;;4923495;28;20434;-90
2022/04/26 06:50:38;;;;;;;15.20;13.70;;;10.10;99.90;;;;;;4921111;28;20187;-89
2022/04/26 06:53:08;;;;;;;15.93;14.37;;;10.50;99.90;;;;;;4925462;28;20442;-90
2022/04/26 06:55:37;;;;;;;14.90;13.40;;;10.20;99.90;;;;;;4943827;28;20967;-91
2022/04/26 06:58:21;;;;;;;14.33;12.93;;;10.30;99.90;;;;;;4929151;28;20509;-91
2022/04/26 07:00:56;;;;;;;15.00;13.60;;;10.40;99.90;;;;;;4930742;28;20433;-91
2022/04/26 07:03:26;;;;;;;15.17;13.63;;;10.30;99.90;;;;;;4926090;29;20434;-90
2022/04/26 07:05:58;;;;;;;15.47;14.00;;;10.40;99.90;;;;;;4921917;29;20439;-93
2022/04/26 07:08:35;;;;;;;15.57;14.03;;;10.40;99.90;;;;;;4922346;29;20456;-92
2022/04/26 07:11:18;;;;;;;70.27;63.30;;;10.40;99.90;;;;;;4940929;28;20438;-92
2022/04/26 07:13:48;;;;;;;15.80;14.20;;;10.80;99.90;;;;;;4926025;29;20451;-91
2022/04/26 07:16:15;;;;;;;14.17;12.70;;;10.60;99.90;;;;;;4903578;29;20431;-90
2022/04/26 07:18:41;;;;;;;15.77;14.27;;;10.70;99.90;;;;;;4909009;28;20926;-90
2022/04/26 07:21:06;;;;;;;15.33;13.70;;;11.20;99.90;;;;;;4915414;29;20451;-89
2022/04/26 07:23:32;;;;;;;14.90;13.50;;;10.70;99.90;;;;;;4915614;28;20218;-91
2022/04/26 07:26:00;;;;;;;15.40;13.77;;;10.60;99.90;;;;;;4940623;28;20179;-90
2022/04/26 07:28:28;;;;;;;14.13;12.83;;;10.80;99.90;;;;;;4929295;29;20740;-89
2022/04/26 07:30:56;;;;;;;13.83;12.47;;;10.90;99.90;;;;;;4943636;28;20474;-93
2022/04/26 07:36:11;;;;;;;12.90;11.70;;;11.20;99.90;;;;;;4945877;28;20565;-90
2022/04/26 07:38:37;;;;;;;14.23;12.73;;;11.80;99.90;;;;;;4928298;28;20553;-91
2022/04/26 07:41:07;;;;;;;12.50;11.30;;;11.80;99.90;;;;;;4922524;29;20533;-92
2022/04/26 07:43:35;;;;;;;13.50;12.20;;;11.70;99.90;;;;;;4928703;29;20446;-93
2022/04/26 07:46:01;;;;;;;11.97;10.87;;;11.50;99.90;;;;;;4948865;29;20416;-90
2022/04/26 07:48:29;;;;;;;11.67;10.57;;;11.80;99.90;;;;;;4945802;29;20426;-91
2022/04/26 07:50:55;;;;;;;11.33;10.33;;;12.00;99.90;;;;;;4943306;29;20183;-92
2022/04/26 07:53:20;;;;;;;11.37;10.30;;;12.30;99.90;;;;;;4929976;29;20461;-92
2022/04/26 07:55:47;;;;;;;10.73;9.80;;;12.20;99.90;;;;;;4928076;29;20655;-93
2022/04/26 07:58:12;;;;;;;10.10;9.20;;;11.80;99.90;;;;;;4929042;29;20234;-91
2022/04/26 08:00:38;;;;;;;9.40;8.50;;;11.80;99.90;;;;;;4922889;29;20449;-92
2022/04/26 08:03:05;;;;;;;9.30;8.40;;;11.60;99.90;;;;;;4940660;28;20179;-91
2022/04/26 08:05:37;;;;;;;10.03;9.13;;;11.50;99.90;;;;;;4921529;29;20190;-90
2022/04/26 08:08:06;;;;;;;8.80;8.00;;;11.50;99.90;;;;;;4926778;28;20482;-90
2022/04/26 08:10:31;;;;;;;10.20;9.17;;;11.50;99.90;;;;;;4935439;28;20884;-91
2022/04/26 08:12:57;;;;;;;9.90;9.00;;;11.40;99.90;;;;;;4925551;29;20439;-91
2022/04/26 08:15:22;;;;;;;9.33;8.50;;;11.40;99.90;;;;;;4924663;29;20715;-91
2022/04/26 08:17:48;;;;;;;9.70;8.80;;;11.50;99.90;;;;;;4928525;29;20215;-91
2022/04/26 08:20:14;;;;;;;9.90;9.10;;;11.50;99.90;;;;;;4925123;29;20185;-91
2022/04/26 08:22:40;;;;;;;10.30;9.30;;;11.60;99.90;;;;;;4928107;29;20183;-92
2022/04/26 08:27:50;;;;;;;10.07;9.10;;;11.20;99.90;;;;;;4921693;28;20245;-91
2022/04/26 08:30:18;;;;;;;9.47;8.67;;;11.00;99.90;;;;;;4925383;28;20983;-91
2022/04/26 08:32:50;;;;;;;9.10;8.23;;;10.90;99.90;;;;;;4914632;28;20199;-93
2022/04/26 08:35:24;;;;;;;9.40;8.50;;;10.80;99.90;;;;;;4915371;28;20490;-94
2022/04/26 08:38:05;;;;;;;9.43;8.47;;;10.80;99.90;;;;;;4921772;28;20477;-91
2022/04/26 08:40:31;;;;;;;9.53;8.67;;;11.10;99.90;;;;;;4914051;29;20469;-92
2022/04/26 08:43:02;;;;;;;9.23;8.33;;;10.90;99.90;;;;;;4912288;29;20565;-91
2022/04/26 08:45:31;;;;;;;7.77;7.13;;;11.10;99.90;;;;;;4925292;28;21313;-92
2022/04/26 08:51:04;;;;;;;8.47;7.77;;;11.40;99.90;;;;;;4925973;28;20938;-93
2022/04/26 08:53:39;;;;;;;8.20;7.27;;;11.70;99.90;;;;;;4915706;28;20455;-94
2022/04/26 08:56:08;;;;;;;8.40;7.73;;;11.90;99.90;;;;;;4936022;28;20873;-94
2022/04/26 08:58:40;;;;;;;7.80;7.10;;;11.70;99.90;;;;;;4925030;28;20525;-93
2022/04/26 09:01:22;;;;;;;8.57;7.67;;;11.60;99.90;;;;;;4909839;28;20485;-91
2022/04/26 09:03:54;;;;;;;8.40;7.60;;;11.60;99.90;;;;;;4909607;28;20835;-91
2022/04/26 09:06:48;;;;;;;9.00;8.20;;;11.50;99.90;;;;;;4914501;28;20435;-91
2022/04/26 09:09:15;;;;;;;8.57;7.77;;;11.50;99.90;;;;;;4910488;28;20454;-92
2022/04/26 09:11:42;;;;;;;9.73;8.73;;;11.60;99.90;;;;;;4912554;28;20454;-91
2022/04/26 09:14:27;;;;;;;8.00;7.30;;;11.90;99.90;;;;;;4918316;28;20886;-90
2022/04/26 09:17:06;;;;;;;8.57;7.87;;;12.30;99.90;;;;;;4936657;28;20478;-90
2022/04/26 09:19:49;;;;;;;9.20;8.40;;;12.40;99.90;;;;;;4932279;28;20467;-89
2022/04/26 09:22:38;;;;;;;8.63;7.93;;;12.40;99.90;;;;;;4912536;28;20507;-91
2022/04/26 09:25:06;;;;;;;9.10;8.20;;;12.50;99.90;;;;;;4907867;28;20830;-90
2022/04/26 09:27:42;;;;;;;7.47;6.87;;;12.50;99.90;;;;;;4938945;28;20994;-90
2022/04/26 09:30:12;;;;;;;8.20;7.40;;;12.20;99.90;;;;;;4910415;28;20972;-91
2022/04/26 09:33:36;;;;;;;8.97;8.13;;;11.90;99.90;;;;;;4908671;28;20964;-96
2022/04/26 09:36:09;;;;;;;8.30;7.50;;;11.70;99.90;;;;;;4921615;29;20481;-91
2022/04/26 09:38:37;;;;;;;7.80;7.03;;;11.60;99.90;;;;;;4911828;28;21157;-91
2022/04/26 09:41:09;;;;;;;9.40;7.20;;;11.60;99.90;;;;;;4913540;28;22145;-91
2022/04/26 09:43:36;;;;;;;7.60;6.90;;;11.80;99.90;;;;;;4912696;29;20438;-92
2022/04/26 09:46:01;;;;;;;8.70;7.80;;;11.90;99.90;;;;;;4926373;28;20438;-91
2022/04/26 09:48:35;;;;;;;6.67;6.07;;;12.20;99.90;;;;;;4916975;29;20443;-89
2022/04/26 09:51:04;;;;;;;8.40;6.70;;;12.30;99.90;;;;;;4935076;28;20759;-92
2022/04/26 09:53:30;;;;;;;7.40;6.70;;;12.40;99.90;;;;;;4920061;28;20455;-92
2022/04/26 09:55:56;;;;;;;8.27;7.47;;;12.40;99.90;;;;;;4919497;29;20462;-92
2022/04/26 09:58:26;;;;;;;7.47;6.77;;;12.40;99.90;;;;;;4917155;29;20475;-88
2022/04/26 10:01:05;;;;;;;6.40;5.80;;;12.40;99.90;;;;;;4920220;28;20827;-90
2022/04/26 10:03:37;;;;;;;6.37;5.87;;;12.50;99.90;;;;;;4922533;29;20445;-91
2022/04/26 10:06:05;;;;;;;7.80;7.00;;;12.50;99.90;;;;;;4933668;28;20510;-94
2022/04/26 10:08:34;;;;;;;7.00;6.30;;;12.80;99.90;;;;;;4936356;28;21170;-95
2022/04/26 10:11:01;;;;;;;7.67;6.97;;;13.20;99.90;;;;;;4919184;28;20554;-93
2022/04/26 10:13:31;;;;;;;8.33;6.13;;;13.00;99.90;;;;;;4925355;28;20443;-93
2022/04/26 10:16:02;;;;;;;6.07;5.50;;;13.00;99.90;;;;;;4920130;29;20650;-89
2022/04/26 10:18:45;;;;;;;6.73;6.23;;;13.00;99.90;;;;;;4918630;28;20514;-96
2022/04/26 10:21:55;;;;;;;;;;;;;;;;;;;;;
2022/04/26 10:25:23;;;;;;;6.13;5.63;;;13.10;99.90;;;;;;4939322;28;20443;-93
2022/04/26 10:28:26;;;;;;;6.40;5.80;;;13.00;99.90;;;;;;4939102;28;20511;-90
2022/04/26 10:31:10;;;;;;;6.97;6.07;;;13.10;99.90;;;;;;4925496;28;20462;-92
2022/04/26 10:33:42;;;;;;;5.90;5.40;;;13.10;99.90;;;;;;4910705;29;20495;-92
2022/04/26 10:36:36;;;;;;;;;;;;;;;;;;;;;
2022/04/26 10:39:16;;;;;;;6.90;5.77;;;13.50;99.30;;;;;;4929430;28;20487;-92
2022/04/26 10:45:10;;;;;;;6.40;5.27;;;13.50;99.90;;;;;;4911716;28;20843;-88
2022/04/26 10:47:36;;;;;;;8.50;4.97;;;13.30;99.80;;;;;;4937860;28;20446;-89
2022/04/26 10:50:05;;;;;;;6.30;5.37;;;13.10;99.90;;;;;;4926408;29;20545;-88
2022/04/26 10:52:35;;;;;;;6.67;5.50;;;13.00;99.90;;;;;;4938689;28;20500;-88
2022/04/26 10:55:03;;;;;;;5.50;5.10;;;13.30;99.90;;;;;;4916112;28;20450;-89
2022/04/26 10:57:42;;;;;;;6.17;5.57;;;13.10;99.90;;;;;;4935630;28;20470;-87
2022/04/26 11:00:10;;;;;;;5.50;5.00;;;13.80;99.90;;;;;;4929563;28;20472;-89
2022/04/26 11:02:48;;;;;;;5.40;4.90;;;14.70;98.70;;;;;;4927061;29;20431;-88
2022/04/26 11:05:35;;;;;;;5.63;5.07;;;15.10;95.30;;;;;;4922346;29;20483;-88
2022/04/26 11:08:04;;;;;;;5.17;4.70;;;15.30;94.30;;;;;;4920608;28;20457;-89
2022/04/26 11:13:34;;;;;;;5.40;4.97;;;16.40;92.40;;;;;;4946975;28;20460;-88
2022/04/26 11:16:08;;;;;;;6.10;5.50;;;16.00;90.50;;;;;;4913319;28;20524;-88
2022/04/26 11:18:42;;;;;;;4.67;4.27;;;15.60;92.20;;;;;;4921819;28;20482;-91
2022/04/26 11:21:08;;;;;;;7.30;5.00;;;15.10;91.60;;;;;;4916207;29;20553;-90
2022/04/26 11:29:26;;;;;;;5.80;5.40;;;14.50;93.80;;;;;;4938379;28;20501;-89
2022/04/26 11:31:57;;;;;;;5.53;5.03;;;14.00;93.20;;;;;;4923428;29;21494;-89
2022/04/26 11:34:48;;;;;;;5.20;4.80;;;14.50;94.00;;;;;;4928241;28;20469;-89
2022/04/26 11:40:32;;;;;;;11.10;4.90;;;14.60;92.30;;;;;;4935072;28;20602;-90
2022/04/26 11:42:58;;;;;;;7.90;5.43;;;13.90;93.90;;;;;;4924159;29;20461;-89
2022/04/26 11:45:32;;;;;;;6.43;5.50;;;13.60;94.50;;;;;;4928061;28;20730;-88
2022/04/26 11:47:58;;;;;;;8.20;6.30;;;13.30;98.60;;;;;;4909875;28;20449;-89
2022/04/26 11:50:29;;;;;;;6.57;5.40;;;12.70;99.90;;;;;;4920532;28;21061;-95
2022/04/26 11:53:04;;;;;;;5.33;4.83;;;12.10;99.90;;;;;;4910651;28;20274;-89
2022/04/26 11:55:33;;;;;;;5.20;4.70;;;11.60;99.90;;;;;;4916803;28;20703;-90
2022/04/26 11:58:06;;;;;;;4.53;4.13;;;11.40;99.90;;;;;;4918534;28;20917;-90
2022/04/26 12:00:38;;;;;;;5.00;4.60;;;11.60;99.90;;;;;;4927630;28;20960;-89
2022/04/26 12:03:06;;;;;;;4.47;4.07;;;11.70;99.90;;;;;;4933979;28;20801;-89
2022/04/26 12:05:37;;;;;;;4.93;3.97;;;11.70;99.90;;;;;;4925930;29;20533;-89
2022/04/26 12:08:03;;;;;;;4.20;3.90;;;11.70;99.90;;;;;;4922178;28;20465;-89
2022/04/26 12:10:42;;;;;;;5.03;4.60;;;11.70;99.90;;;;;;4904603;29;20927;-89
2022/04/26 12:13:07;;;;;;;4.70;4.20;;;11.50;99.90;;;;;;4933426;28;20455;-89
2022/04/26 12:15:43;;;;;;;4.23;3.90;;;11.50;99.90;;;;;;4922866;28;20441;-90
2022/04/26 12:18:14;;;;;;;4.27;3.17;;;11.40;99.90;;;;;;4923072;29;20240;-89
2022/04/26 12:21:03;;;;;;;4.57;4.20;;;11.40;99.90;;;;;;4913349;29;20443;-91
2022/04/26 12:23:30;;;;;;;6.20;5.37;;;12.50;99.90;;;;;;4902262;28;20589;-89
2022/04/26 12:26:02;;;;;;;5.40;4.90;;;13.60;99.90;;;;;;4938638;28;20455;-90
2022/04/26 12:28:31;;;;;;;5.70;4.67;;;13.90;99.90;;;;;;4928939;28;20461;-96
2022/04/26 12:31:05;;;;;;;7.20;5.43;;;13.10;99.90;;;;;;4919137;29;20593;-89
2022/04/26 12:33:35;;;;;;;5.47;4.83;;;12.80;99.90;;;;;;4918862;28;21032;-89
2022/04/26 12:36:19;;;;;;;8.50;6.50;;;12.80;99.90;;;;;;4920323;29;21355;-86
2022/04/26 12:39:06;;;;;;;13.03;9.53;;;12.70;99.90;;;;;;4916316;28;22227;-88
2022/04/26 12:41:56;;;;;;;7.43;6.87;;;12.80;99.90;;;;;;4928976;28;20960;-88
2022/04/26 12:44:24;;;;;;;7.43;6.73;;;12.40;99.90;;;;;;4917486;29;20545;-88
2022/04/26 12:53:08;;;;;;;8.73;7.80;;;11.30;99.90;;;;;;4939025;28;20461;-89
2022/04/26 12:56:08;;;;;;;9.40;8.50;;;9.90;99.90;;;;;;4930118;28;20442;-89
2022/04/26 12:58:58;;;;;;;13.30;11.17;;;9.40;99.90;;;;;;4926988;28;20478;-89
2022/04/26 13:01:24;;;;;;;14.90;12.27;;;9.60;99.90;;;;;;4912797;29;20442;-89
2022/04/26 13:03:49;;;;;;;12.83;11.40;;;10.20;99.90;;;;;;4917662;29;20811;-89
2022/04/26 13:06:19;;;;;;;10.57;9.50;;;10.50;99.90;;;;;;4913344;28;20551;-88
2022/04/26 13:08:48;;;;;;;8.20;7.40;;;10.10;99.90;;;;;;4915052;28;20602;-88
2022/04/26 13:11:18;;;;;;;10.10;9.03;;;10.50;99.90;;;;;;4919160;29;20450;-88
2022/04/26 13:13:51;;;;;;;7.93;7.23;;;9.90;99.90;;;;;;4920943;29;20442;-87
2022/04/26 13:16:20;;;;;;;8.57;7.70;;;9.70;99.90;;;;;;4909458;28;20439;-88
2022/04/26 13:18:50;;;;;;;11.63;7.13;;;9.80;99.90;;;;;;4919314;29;20490;-88
2022/04/26 13:21:18;;;;;;;9.00;7.43;;;10.20;99.90;;;;;;4919143;29;20446;-89
2022/04/26 13:23:51;;;;;;;11.17;7.00;;;10.40;99.90;;;;;;4916574;28;20522;-87
2022/04/26 13:26:31;;;;;;;7.87;7.17;;;11.00;99.90;;;;;;4906794;28;20528;-89
2022/04/26 13:28:56;;;;;;;7.90;7.20;;;11.50;99.90;;;;;;4904937;29;20466;-87
2022/04/26 13:31:23;;;;;;;7.50;6.80;;;11.80;99.90;;;;;;4907210;28;20447;-88
2022/04/26 13:33:49;;;;;;;5.90;5.23;;;12.20;99.90;;;;;;4911350;28;20210;-87
2022/04/26 13:36:17;;;;;;;6.00;5.50;;;12.30;99.90;;;;;;4911664;29;20513;-86
2022/04/26 13:38:43;;;;;;;7.47;6.77;;;12.60;99.90;;;;;;4918059;28;20309;-86
2022/04/26 13:41:09;;;;;;;7.27;5.57;;;13.30;99.90;;;;;;4912904;29;20442;-88
2022/04/26 13:43:34;;;;;;;6.73;5.70;;;14.20;99.90;;;;;;4919971;28;20210;-88
2022/04/26 13:46:00;;;;;;;4.50;4.10;;;15.30;99.90;;;;;;4918668;28;20992;-89
2022/04/26 13:48:26;;;;;;;5.30;4.80;;;15.70;99.90;;;;;;4912957;29;20675;-89
2022/04/26 13:50:51;;;;;;;5.67;5.17;;;15.40;99.90;;;;;;4916651;29;20186;-89
2022/04/26 13:53:17;;;;;;;4.57;4.17;;;15.80;99.90;;;;;;4893512;29;20297;-88
2022/04/26 13:55:42;;;;;;;4.97;4.47;;;16.00;99.90;;;;;;4898881;28;20213;-88
2022/04/26 13:58:10;;;;;;;6.17;5.57;;;15.70;99.90;;;;;;4893308;28;20227;-89
2022/04/26 14:00:36;;;;;;;5.43;4.93;;;15.30;99.90;;;;;;4889782;28;20598;-88
2022/04/26 14:03:03;;;;;;;4.70;4.30;;;15.70;99.90;;;;;;4893259;28;21532;-89
2022/04/26 14:05:29;;;;;;;5.20;4.80;;;17.40;99.60;;;;;;4884221;28;20672;-87
2022/04/26 14:07:55;;;;;;;8.00;7.17;;;17.40;95.90;;;;;;4907729;29;20501;-89
2022/04/26 14:10:20;;;;;;;4.63;4.23;;;18.50;95.20;;;;;;4900469;28;20183;-86
2022/04/26 14:12:46;;;;;;;5.30;4.77;;;15.60;94.00;;;;;;4912887;28;20213;-88
2022/04/26 14:23:30;;;;;;;4.67;4.27;;;17.10;90.70;;;;;;4921582;28;20880;-87
2022/04/26 14:25:56;;;;;;;4.73;4.33;;;14.50;97.20;;;;;;4922640;28;20644;-88
2022/04/26 14:28:21;;;;;;;5.03;4.63;;;14.20;99.90;;;;;;4912522;29;20457;-89
2022/04/26 14:30:47;;;;;;;3.63;3.40;;;15.30;97.60;;;;;;4913577;29;20184;-87
2022/04/26 14:33:13;;;;;;;3.93;3.60;;;15.00;94.50;;;;;;4905626;29;20673;-89
2022/04/26 14:35:39;;;;;;;3.43;3.13;;;14.00;95.40;;;;;;4909926;28;20183;-88
2022/04/26 14:38:06;;;;;;;3.73;3.43;;;13.10;97.30;;;;;;4900646;28;20482;-88
2022/04/26 14:40:32;;;;;;;3.50;3.30;;;12.80;98.80;;;;;;4896719;29;20504;-90
2022/04/26 14:42:58;;;;;;;3.57;3.23;;;12.80;99.90;;;;;;4908128;28;20446;-88
2022/04/26 14:45:23;;;;;;;3.93;3.53;;;13.30;99.90;;;;;;4897006;29;20654;-89
2022/04/26 14:47:49;;;;;;;3.60;3.30;;;13.50;97.80;;;;;;4923217;28;20195;-90
2022/04/26 14:50:17;;;;;;;4.60;4.10;;;13.90;98.00;;;;;;4893129;29;20223;-90
2022/04/26 14:52:42;;;;;;;3.10;2.90;;;14.20;97.20;;;;;;4891626;28;20318;-89
2022/04/26 14:55:10;;;;;;;3.67;3.30;;;14.70;96.60;;;;;;4896934;28;22067;-89
2022/04/26 14:57:36;;;;;;;3.50;3.20;;;15.60;93.90;;;;;;4909977;28;20711;-88
2022/04/26 15:00:06;;;;;;;3.10;2.80;;;16.40;91.80;;;;;;4912938;29;20442;-88
2022/04/26 15:02:38;;;;;;;3.10;2.90;;;19.10;85.00;;;;;;4907336;28;20484;-87
2022/04/26 15:05:10;;;;;;;3.37;3.07;;;18.40;82.90;;;;;;4907697;28;20478;-87
2022/04/26 15:10:22;;;;;;;3.40;3.07;;;15.00;91.60;;;;;;4914148;28;20808;-88
2022/04/26 15:18:17;;;;;;;2.50;2.30;;;15.10;91.00;;;;;;4908964;28;20485;-88
2022/04/26 15:20:45;;;;;;;2.60;2.40;;;15.70;90.70;;;;;;4908875;28;20877;-88
2022/04/26 15:23:11;;;;;;;2.60;2.40;;;15.90;85.70;;;;;;4893167;28;21177;-88
2022/04/26 15:25:36;;;;;;;2.63;2.40;;;16.30;89.30;;;;;;4888618;29;21003;-89
2022/04/26 15:28:02;;;;;;;2.93;2.63;;;16.30;81.20;;;;;;4902868;28;20202;-88
2022/04/26 15:30:28;;;;;;;3.23;3.03;;;16.80;80.60;;;;;;4914048;28;20736;-88
2022/04/26 15:32:53;;;;;;;3.53;3.00;;;17.40;85.20;;;;;;4905629;28;20269;-89
2022/04/26 15:35:19;;;;;;;3.23;3.00;;;17.50;86.90;;;;;;4899766;28;20197;-89
2022/04/26 15:37:45;;;;;;;2.53;2.33;;;17.20;82.80;;;;;;4911002;28;20313;-89
2022/04/26 15:40:11;;;;;;;2.13;2.03;;;18.00;76.60;;;;;;4909305;28;20191;-88
2022/04/26 15:42:36;;;;;;;16.53;12.53;;;19.20;76.50;;;;;;4907638;28;20549;-88
2022/04/26 15:45:05;;;;;;;3.60;3.30;;;20.40;76.60;;;;;;4915184;28;20453;-89
2022/04/26 15:47:30;;;;;;;3.30;3.10;;;23.20;74.30;;;;;;4928029;28;20587;-89
2022/04/26 15:50:11;;;;;;;3.53;3.33;;;25.20;66.90;;;;;;4926492;28;20605;-90
2022/04/26 15:52:38;;;;;;;3.53;3.30;;;25.60;65.60;;;;;;4923294;28;20508;-89
2022/04/26 15:55:04;;;;;;;3.43;3.13;;;27.00;60.60;;;;;;4899585;29;21599;-92
2022/04/26 15:57:30;;;;;;;4.07;3.77;;;25.30;58.80;;;;;;4914296;29;20910;-89
2022/04/26 15:59:56;;;;;;;4.43;4.07;;;23.10;60.60;;;;;;4930816;28;20450;-95
2022/04/26 16:02:23;;;;;;;5.00;4.50;;;20.00;68.10;;;;;;4915570;28;20998;-90
2022/04/26 16:04:49;;;;;;;4.20;3.90;;;16.90;77.90;;;;;;4918180;28;20230;-90
2022/04/26 16:07:15;;;;;;;5.13;4.73;;;15.10;88.70;;;;;;4916654;28;20442;-89
2022/04/26 16:21:14;;;;;;;5.93;5.33;;;12.40;99.90;;;;;;4937351;28;20441;-88
2022/04/26 16:23:40;;;;;;;4.87;4.47;;;12.10;99.90;;;;;;4924303;28;20451;-88
2022/04/26 16:26:12;;;;;;;5.23;4.73;;;11.80;99.90;;;;;;4928744;29;20601;-86
2022/04/26 16:28:40;;;;;;;4.47;4.13;;;11.00;99.90;;;;;;4924198;29;20218;-88
2022/04/26 16:31:12;;;;;;;6.70;5.20;;;10.60;99.90;;;;;;4914249;29;20449;-89
2022/04/26 16:33:37;;;;;;;5.70;5.07;;;10.40;99.90;;;;;;4938219;28;20478;-85
2022/04/26 16:36:03;;;;;;;5.60;5.10;;;10.20;99.90;;;;;;4923978;29;20435;-88
2022/04/26 16:38:28;;;;;;;6.53;5.93;;;10.00;99.90;;;;;;4919235;28;20606;-88
2022/04/26 16:40:56;;;;;;;6.63;6.03;;;9.90;99.90;;;;;;4919269;29;20194;-88
2022/04/26 16:43:22;;;;;;;4.53;4.17;;;10.30;99.90;;;;;;4929714;29;20184;-90
2022/04/26 16:45:51;;;;;;;4.83;4.43;;;11.20;99.90;;;;;;4922581;28;20513;-88
2022/04/26 16:48:22;;;;;;;5.20;4.43;;;14.20;99.90;;;;;;4922473;28;20926;-88
2022/04/26 16:51:04;;;;;;;2.93;2.73;;;15.90;99.90;;;;;;4940436;28;20976;-89
2022/04/26 16:53:49;;;;;;;3.33;3.03;;;19.10;98.50;;;;;;4929474;28;20446;-92
2022/04/26 16:56:19;;;;;;;4.20;3.90;;;21.80;90.30;;;;;;4923724;29;20446;-88
2022/04/26 16:58:45;;;;;;;5.47;4.97;;;21.70;84.50;;;;;;4914377;29;21002;-88
2022/04/26 17:01:11;;;;;;;4.13;3.83;;;21.60;85.00;;;;;;4905868;29;20443;-88
2022/04/26 17:03:38;;;;;;;4.07;3.77;;;22.20;86.70;;;;;;4902855;29;20187;-88
2022/04/26 17:06:04;;;;;;;3.87;3.57;;;23.10;80.40;;;;;;4907412;29;20199;-88
2022/04/26 17:08:31;;;;;;;3.87;3.53;;;23.90;77.90;;;;;;4905273;28;20451;-90
2022/04/26 17:11:41;;;;;;;4.70;4.30;;;23.50;74.50;;;;;;4927742;28;20187;-89
2022/04/26 17:13:42;;;;;;;5.47;4.97;;;19.30;84.10;;;;;;4940103;28;20464;-90
2022/04/26 17:16:10;;;;;;;5.47;5.07;;;18.50;91.40;;;;;;4914896;28;20881;-90
2022/04/26 17:18:36;;;;;;;5.10;4.70;;;17.30;93.40;;;;;;4923125;28;20812;-92
2022/04/26 17:21:02;;;;;;;4.63;4.30;;;15.50;96.50;;;;;;4914541;29;20930;-90
2022/04/26 17:23:28;;;;;;;5.80;5.30;;;14.70;99.90;;;;;;4911632;28;20310;-91
2022/04/26 17:25:54;;;;;;;5.00;4.60;;;14.20;99.90;;;;;;4921101;28;20549;-84
2022/04/26 17:28:22;;;;;;;3.50;3.30;;;13.60;99.90;;;;;;4925486;29;20720;-90
2022/04/26 17:30:58;;;;;;;3.70;3.40;;;13.10;99.90;;;;;;4916404;28;20647;-88
2022/04/26 17:33:26;;;;;;;4.57;4.20;;;12.60;99.90;;;;;;4906559;29;20953;-89
2022/04/26 17:35:52;;;;;;;4.07;3.77;;;12.40;99.90;;;;;;4905299;28;20714;-88
2022/04/26 17:38:18;;;;;;;4.30;3.73;;;12.50;99.90;;;;;;4911147;28;20493;-90
2022/04/26 17:40:43;;;;;;;3.87;3.57;;;12.60;99.90;;;;;;4915883;28;20195;-89
2022/04/26 17:43:16;;;;;;;3.90;3.60;;;12.60;99.90;;;;;;4908612;28;20628;-91
2022/04/26 17:45:46;;;;;;;4.50;4.10;;;12.60;99.90;;;;;;4931372;28;20386;-89
2022/04/26 17:48:15;;;;;;;5.00;4.60;;;12.00;99.90;;;;;;4913413;29;20455;-92
2022/04/26 17:50:44;;;;;;;3.90;3.60;;;11.80;99.90;;;;;;4935768;28;20431;-90
2022/04/26 17:56:29;;;;;;;3.78;3.42;;;11.40;99.90;;;;;;4922747;28;20566;-90
2022/04/26 17:58:57;;;;;;;3.67;3.37;;;10.60;99.90;;;;;;4918900;28;20250;-92
2022/04/26 18:07:44;;;;;;;5.90;5.40;;;11.10;99.90;;;;;;4853936;29;20573;-95
2022/04/26 18:10:13;;;;;;;6.30;5.70;;;11.00;99.90;;;;;;4880139;29;20440;-93
2022/04/26 18:12:49;;;;;;;6.83;6.10;;;11.20;99.90;;;;;;4912289;28;21085;-93
2022/04/26 18:15:28;;;;;;;6.03;5.57;;;10.70;99.90;;;;;;4952245;28;20887;-89
2022/04/26 18:17:53;;;;;;;6.67;6.07;;;10.70;99.90;;;;;;4963528;28;20484;-93
2022/04/26 18:20:20;;;;;;;4.90;4.27;;;10.50;99.90;;;;;;4974548;28;20455;-89
2022/04/26 18:22:48;;;;;;;5.27;4.80;;;11.10;99.90;;;;;;4967715;28;20532;-90
2022/04/26 18:28:20;;;;;;;4.83;4.43;;;10.70;99.90;;;;;;4953273;28;20422;-92
2022/04/26 18:31:03;;;;;;;6.27;5.67;;;10.70;99.90;;;;;;4938393;29;20457;-93
2022/04/26 18:33:43;;;;;;;7.30;6.60;;;10.30;99.90;;;;;;4970231;28;20433;-96
2022/04/26 19:28:13;;;;;;;6.67;6.07;;;9.90;99.90;;;;;;4966927;28;21102;-94
2022/04/26 19:30:39;;;;;;;9.50;6.50;;;9.90;99.90;;;;;;4967509;28;20497;-96